Time;durP1;ratioP1;P1;durP2;ratioP2;P2;SDS_P1;SDS_P2;PMS_P1;PMS_P2;Temp;Humidity;BMP_temperature;BMP_pressure;BME280_temperature;BME280_humidity;BME280_pressure;Samples;Min_cycle;Max_cycle;Signal;HPM_P1;HPM_P2
2022/12/04 00:02:09;;;;;;;54.83;21.88;;;1.20;99.90;;;;;;5074735;28;20058;-62
2022/12/04 00:04:35;;;;;;;58.15;23.83;;;1.20;99.90;;;;;;5093188;28;20476;-62
2022/12/04 00:07:00;;;;;;;55.08;22.20;;;1.20;99.90;;;;;;5093562;28;20031;-62
2022/12/04 00:09:26;;;;;;;66.03;23.98;;;1.20;99.90;;;;;;5091974;28;20032;-62
2022/12/04 00:11:52;;;;;;;63.22;22.70;;;1.20;99.90;;;;;;5109028;28;20598;-63
2022/12/04 00:14:18;;;;;;;63.05;23.33;;;1.20;99.90;;;;;;5093168;28;20061;-62
2022/12/04 00:16:43;;;;;;;57.50;22.42;;;1.20;99.90;;;;;;5108664;28;20024;-62
2022/12/04 00:19:09;;;;;;;56.60;22.48;;;1.20;99.90;;;;;;5093423;28;20476;-62
2022/12/04 00:21:34;;;;;;;66.30;24.52;;;1.20;99.90;;;;;;5093183;28;20032;-62
2022/12/04 00:24:01;;;;;;;58.22;22.40;;;1.20;99.90;;;;;;5108258;28;20020;-62
2022/12/04 00:26:29;;;;;;;53.03;21.92;;;1.20;99.90;;;;;;5093166;28;20080;-62
2022/12/04 00:28:56;;;;;;;54.78;22.85;;;1.20;99.90;;;;;;5075129;28;20371;-62
2022/12/04 00:31:26;;;;;;;61.15;23.58;;;1.20;99.90;;;;;;5074242;28;20020;-62
2022/12/04 00:33:52;;;;;;;59.40;23.05;;;1.20;99.90;;;;;;5093085;28;20022;-62
2022/12/04 00:36:20;;;;;;;53.35;21.55;;;1.20;99.90;;;;;;5092981;28;20396;-62
2022/12/04 00:38:46;;;;;;;56.22;23.15;;;1.20;99.90;;;;;;5092846;28;20526;-62
2022/12/04 00:41:14;;;;;;;62.28;23.33;;;1.30;99.90;;;;;;5093146;28;20069;-62
2022/12/04 00:43:40;;;;;;;58.90;24.08;;;1.30;99.90;;;;;;5092178;28;20059;-63
2022/12/04 00:46:06;;;;;;;62.10;24.23;;;1.20;99.90;;;;;;5092945;28;20099;-62
2022/12/04 00:48:32;;;;;;;61.53;24.27;;;1.20;99.90;;;;;;5092483;28;20048;-62
2022/12/04 00:51:07;;;;;;;57.63;23.30;;;1.20;99.90;;;;;;5092269;28;20024;-62
2022/12/04 00:53:33;;;;;;;63.88;24.45;;;1.20;99.90;;;;;;5092592;28;20028;-62
2022/12/04 00:56:02;;;;;;;59.22;24.23;;;1.20;99.90;;;;;;5093013;28;20114;-62
2022/12/04 00:58:27;;;;;;;59.38;24.02;;;1.30;99.90;;;;;;5091973;28;20338;-62
2022/12/04 01:01:10;;;;;;;63.80;22.00;;;1.20;99.90;;;;;;5092794;28;20518;-62
2022/12/04 01:03:36;;;;;;;60.72;25.00;;;1.20;99.90;;;;;;5092384;28;20058;-62
2022/12/04 01:06:03;;;;;;;66.82;25.77;;;1.20;99.90;;;;;;5092383;28;20020;-62
2022/12/04 01:08:29;;;;;;;58.15;24.08;;;1.20;99.90;;;;;;5092500;28;20027;-62
2022/12/04 01:10:54;;;;;;;61.45;23.02;;;1.20;99.90;;;;;;5092519;28;20020;-62
2022/12/04 01:13:22;;;;;;;58.65;24.67;;;1.20;99.90;;;;;;5091689;28;20126;-62
2022/12/04 01:15:48;;;;;;;59.20;22.70;;;1.20;99.90;;;;;;5092790;28;20043;-62
2022/12/04 01:18:15;;;;;;;63.85;24.60;;;1.10;99.90;;;;;;5092759;28;20016;-62
2022/12/04 01:20:49;;;;;;;51.03;21.67;;;1.10;99.90;;;;;;5094729;28;20039;-62
2022/12/04 01:23:15;;;;;;;58.58;23.90;;;1.10;99.90;;;;;;5096771;28;20043;-63
2022/12/04 01:25:49;;;;;;;57.15;22.40;;;1.20;99.90;;;;;;5078118;28;20060;-63
2022/12/04 01:28:15;;;;;;;55.88;23.15;;;1.20;99.90;;;;;;5096653;28;20054;-63
2022/12/04 01:30:40;;;;;;;57.88;23.50;;;1.20;99.90;;;;;;5093872;28;20055;-63
2022/12/04 01:33:06;;;;;;;57.22;22.73;;;1.30;99.90;;;;;;5095870;28;20020;-62
2022/12/04 01:35:31;;;;;;;54.97;22.90;;;1.30;99.90;;;;;;5096319;28;20111;-62
2022/12/04 01:37:57;;;;;;;57.85;24.33;;;1.30;99.90;;;;;;5077833;28;20144;-62
2022/12/04 01:40:23;;;;;;;62.38;24.48;;;1.30;99.90;;;;;;5095213;28;20055;-63
2022/12/04 01:42:48;;;;;;;59.60;22.52;;;1.30;99.90;;;;;;5096298;28;20077;-62
2022/12/04 01:45:37;;;;;;;64.40;23.77;;;1.30;99.90;;;;;;5078160;28;20027;-62
2022/12/04 01:48:27;;;;;;;63.45;23.23;;;1.20;99.90;;;;;;5095645;28;20016;-63
2022/12/04 01:51:17;;;;;;;54.30;22.30;;;1.20;99.90;;;;;;5076318;28;20030;-62
2022/12/04 01:53:48;;;;;;;61.05;23.38;;;1.30;99.90;;;;;;5075468;28;20464;-62
2022/12/04 01:56:15;;;;;;;56.03;22.77;;;1.20;99.90;;;;;;5075792;28;20495;-63
2022/12/04 01:58:45;;;;;;;56.08;23.70;;;1.20;99.90;;;;;;5091260;28;20020;-63
2022/12/04 02:01:10;;;;;;;65.90;25.10;;;1.30;99.90;;;;;;5090997;28;20024;-62
2022/12/04 02:03:37;;;;;;;63.00;25.27;;;1.30;99.90;;;;;;5091331;28;20034;-62
2022/12/04 02:06:04;;;;;;;56.30;23.15;;;1.30;99.90;;;;;;5075530;28;20028;-62
2022/12/04 02:08:30;;;;;;;68.35;25.10;;;1.30;99.90;;;;;;5074529;28;20380;-62
2022/12/04 02:11:08;;;;;;;69.95;25.48;;;1.30;99.90;;;;;;5075442;28;20017;-62
2022/12/04 02:13:47;;;;;;;59.42;23.83;;;1.30;99.90;;;;;;5057094;28;20055;-62
2022/12/04 02:16:20;;;;;;;58.30;22.70;;;1.30;99.90;;;;;;5067810;28;20043;-62
2022/12/04 02:19:20;;;;;;;60.53;24.00;;;1.30;99.90;;;;;;5114697;28;20020;-62
2022/12/04 02:21:48;;;;;;;62.75;21.83;;;1.30;99.90;;;;;;5114823;28;20028;-61
2022/12/04 02:24:16;;;;;;;62.55;24.42;;;1.30;99.90;;;;;;5115222;28;20027;-62
2022/12/04 02:26:55;;;;;;;59.00;23.52;;;1.20;99.90;;;;;;5115919;28;20059;-62
2022/12/04 02:29:39;;;;;;;63.20;24.48;;;1.20;99.90;;;;;;5114754;28;20020;-62
2022/12/04 02:32:50;;;;;;;71.15;25.10;;;1.30;99.90;;;;;;5111308;28;20023;-62
2022/12/04 02:35:24;;;;;;;55.42;24.13;;;1.20;99.90;;;;;;5106779;28;20488;-62
2022/12/04 02:38:17;;;;;;;64.80;23.42;;;1.30;99.90;;;;;;5114889;28;20064;-61
2022/12/04 02:40:58;;;;;;;66.10;23.52;;;1.20;99.90;;;;;;5106879;28;20043;-62
2022/12/04 02:43:40;;;;;;;58.10;23.23;;;1.20;99.90;;;;;;5112019;28;20455;-62
2022/12/04 02:46:10;;;;;;;57.30;25.20;;;1.20;99.90;;;;;;5115373;28;20051;-61
2022/12/04 02:48:40;;;;;;;69.65;25.10;;;1.20;99.90;;;;;;5115068;28;20515;-61
2022/12/04 02:51:10;;;;;;;58.90;23.55;;;1.20;99.90;;;;;;5114855;28;20464;-61
2022/12/04 02:53:43;;;;;;;62.38;23.40;;;1.20;99.90;;;;;;5114911;28;20066;-61
2022/12/04 02:56:12;;;;;;;65.43;25.08;;;1.20;99.90;;;;;;5096963;28;20063;-61
2022/12/04 02:58:43;;;;;;;66.22;24.52;;;1.30;99.90;;;;;;5109457;28;20483;-61
2022/12/04 03:01:18;;;;;;;63.33;24.33;;;1.20;99.90;;;;;;5115210;28;20110;-61
2022/12/04 03:04:11;;;;;;;64.80;25.30;;;1.20;99.90;;;;;;5096860;28;20016;-61
2022/12/04 03:06:41;;;;;;;56.85;22.08;;;1.20;99.90;;;;;;5114827;28;20077;-61
2022/12/04 03:09:34;;;;;;;60.77;23.70;;;1.20;99.90;;;;;;5115030;28;20028;-61
2022/12/04 03:12:09;;;;;;;56.15;22.58;;;1.20;99.90;;;;;;5106279;28;20031;-61
2022/12/04 03:14:41;;;;;;;64.35;24.52;;;1.20;99.90;;;;;;5113590;28;20063;-62
2022/12/04 03:17:19;;;;;;;57.85;23.83;;;1.30;99.90;;;;;;5115094;28;20019;-61
2022/12/04 03:19:50;;;;;;;59.03;23.15;;;1.20;99.90;;;;;;5094581;28;20073;-62
2022/12/04 03:22:18;;;;;;;56.13;23.17;;;1.20;99.90;;;;;;5094191;28;20107;-62
2022/12/04 03:24:55;;;;;;;58.17;25.08;;;1.20;99.90;;;;;;5094263;28;20024;-62
2022/12/04 03:27:39;;;;;;;65.18;23.38;;;1.20;99.90;;;;;;5093351;28;20024;-62
2022/12/04 03:30:18;;;;;;;58.13;23.13;;;1.20;99.90;;;;;;5076007;28;20107;-62
2022/12/04 03:33:10;;;;;;;59.50;22.55;;;1.20;99.90;;;;;;5109137;28;20372;-62
2022/12/04 03:35:58;;;;;;;60.55;22.60;;;1.30;99.90;;;;;;5080673;28;20044;-62
2022/12/04 03:38:36;;;;;;;56.30;22.55;;;1.20;99.90;;;;;;5089195;28;20032;-62
2022/12/04 03:41:12;;;;;;;61.83;24.30;;;1.20;99.90;;;;;;5073171;28;20063;-63
2022/12/04 03:43:41;;;;;;;65.50;23.80;;;1.20;99.90;;;;;;5073139;28;20033;-61
2022/12/04 03:46:23;;;;;;;67.15;23.75;;;1.20;99.90;;;;;;5073734;28;20027;-62
2022/12/04 03:49:20;;;;;;;58.20;23.60;;;1.20;99.90;;;;;;5089347;28;20033;-62
2022/12/04 03:51:57;;;;;;;54.15;23.40;;;1.20;99.90;;;;;;5073598;28;20023;-62
2022/12/04 03:54:32;;;;;;;63.08;24.05;;;1.20;99.90;;;;;;5075366;28;20032;-62
2022/12/04 03:57:02;;;;;;;53.40;22.60;;;1.20;99.90;;;;;;5114099;28;20020;-62
2022/12/04 03:59:40;;;;;;;62.28;24.50;;;1.20;99.90;;;;;;5113576;28;20032;-62
2022/12/04 04:02:12;;;;;;;59.58;23.40;;;1.20;99.90;;;;;;5113526;28;20023;-62
2022/12/04 04:04:41;;;;;;;57.70;23.63;;;1.20;99.90;;;;;;5113438;28;20403;-62
2022/12/04 04:07:16;;;;;;;55.47;22.38;;;1.20;99.90;;;;;;5112893;28;20051;-62
2022/12/04 04:09:46;;;;;;;61.80;21.95;;;1.20;99.90;;;;;;5113250;28;20053;-62
2022/12/04 04:12:18;;;;;;;56.05;23.58;;;1.20;99.90;;;;;;5113678;28;20063;-62
2022/12/04 04:26:12;;;;;;;65.75;24.75;;;1.30;99.90;;;;;;5108414;28;20387;-63
2022/12/04 04:28:39;;;;;;;61.10;23.23;;;1.30;99.90;;;;;;5112538;28;20019;-63
2022/12/04 04:31:29;;;;;;;59.30;24.77;;;1.20;99.90;;;;;;5113658;28;20030;-63
2022/12/04 04:34:10;;;;;;;61.90;23.13;;;1.20;99.90;;;;;;5110983;28;20503;-62
2022/12/04 04:36:51;;;;;;;66.63;23.85;;;1.20;99.90;;;;;;5112500;28;20488;-62
2022/12/04 04:39:28;;;;;;;62.10;22.15;;;1.20;99.90;;;;;;5113210;28;20515;-61
2022/12/04 04:42:03;;;;;;;61.20;23.13;;;1.20;99.90;;;;;;5095089;28;20020;-62
2022/12/04 04:44:55;;;;;;;54.00;22.63;;;1.20;99.90;;;;;;5112463;28;20036;-62
2022/12/04 04:47:30;;;;;;;64.40;22.23;;;1.20;99.90;;;;;;5110418;28;20396;-62
2022/12/04 04:50:00;;;;;;;59.25;23.35;;;1.20;99.90;;;;;;5112646;28;20115;-62
2022/12/04 04:52:27;;;;;;;51.47;21.13;;;1.20;99.90;;;;;;5112040;28;20016;-62
2022/12/04 04:54:54;;;;;;;59.75;24.08;;;1.20;99.90;;;;;;5095789;28;20036;-62
2022/12/04 04:57:31;;;;;;;54.85;21.42;;;1.20;99.90;;;;;;5116636;28;20038;-62
2022/12/04 04:59:56;;;;;;;58.35;22.85;;;1.20;99.90;;;;;;5117434;28;20372;-62
2022/12/04 05:02:25;;;;;;;57.22;23.05;;;1.20;99.90;;;;;;5113590;28;20024;-62
2022/12/04 05:04:50;;;;;;;60.53;20.88;;;1.10;99.90;;;;;;5105145;28;20024;-62
2022/12/04 05:07:16;;;;;;;58.30;22.60;;;1.20;99.90;;;;;;5096518;28;20066;-62
2022/12/04 05:09:41;;;;;;;53.40;21.45;;;1.10;99.90;;;;;;5096528;28;20036;-62
2022/12/04 05:12:08;;;;;;;51.38;21.45;;;1.20;99.90;;;;;;5096073;28;20040;-62
2022/12/04 05:14:33;;;;;;;62.78;24.75;;;1.20;99.90;;;;;;5096199;28;20030;-62
2022/12/04 05:16:59;;;;;;;57.03;22.33;;;1.20;99.90;;;;;;5096692;28;20024;-62
2022/12/04 05:22:08;;;;;;;56.83;21.90;;;1.20;99.90;;;;;;5096501;28;20093;-62
2022/12/04 05:24:34;;;;;;;52.33;20.23;;;1.20;99.90;;;;;;5096567;28;20027;-62
2022/12/04 05:26:59;;;;;;;55.80;22.38;;;1.20;99.90;;;;;;5095948;28;20061;-62
2022/12/04 05:29:25;;;;;;;59.25;24.27;;;1.20;99.90;;;;;;5096352;28;20495;-62
2022/12/04 05:31:50;;;;;;;54.53;22.10;;;1.20;99.90;;;;;;5111512;28;20456;-62
2022/12/04 05:34:16;;;;;;;59.80;22.33;;;1.20;99.90;;;;;;5096241;28;20032;-62
2022/12/04 05:36:41;;;;;;;50.60;21.58;;;1.20;99.90;;;;;;5078199;28;20135;-62
2022/12/04 05:39:07;;;;;;;61.45;21.77;;;1.20;99.90;;;;;;5075745;28;20020;-62
2022/12/04 05:41:33;;;;;;;53.83;21.92;;;1.20;99.90;;;;;;5075317;28;20039;-63
2022/12/04 05:43:58;;;;;;;59.15;22.13;;;1.20;99.90;;;;;;5096025;28;20094;-63
2022/12/04 05:46:24;;;;;;;53.63;21.75;;;1.20;99.90;;;;;;5095232;28;20048;-63
2022/12/04 05:48:50;;;;;;;55.20;21.35;;;1.20;99.90;;;;;;5077767;28;20056;-62
2022/12/04 05:51:16;;;;;;;51.10;21.92;;;1.20;99.90;;;;;;5095929;28;20076;-62
2022/12/04 05:53:41;;;;;;;60.30;22.65;;;1.20;99.90;;;;;;5095174;28;20031;-62
2022/12/04 05:56:07;;;;;;;55.78;21.88;;;1.20;99.90;;;;;;5078151;28;20028;-62
2022/12/04 05:58:37;;;;;;;58.67;21.23;;;1.20;99.90;;;;;;5095595;28;20097;-62
2022/12/04 06:01:16;;;;;;;52.20;21.45;;;1.20;99.90;;;;;;5095134;28;20077;-63
2022/12/04 06:03:43;;;;;;;55.10;21.33;;;1.20;99.90;;;;;;5095918;28;20028;-62
2022/12/04 06:06:17;;;;;;;57.78;22.55;;;1.20;99.90;;;;;;5095946;28;20029;-62
2022/12/04 06:08:42;;;;;;;53.08;21.30;;;1.20;99.90;;;;;;5110951;28;20030;-62
2022/12/04 06:11:17;;;;;;;57.95;20.98;;;1.20;99.90;;;;;;5095787;28;20024;-62
2022/12/04 06:13:44;;;;;;;54.92;20.88;;;1.30;99.90;;;;;;5111331;28;20075;-62
2022/12/04 06:16:19;;;;;;;52.97;21.13;;;1.30;99.90;;;;;;5076948;28;20040;-62
2022/12/04 06:18:52;;;;;;;64.07;22.55;;;1.20;99.90;;;;;;5095645;28;20465;-62
2022/12/04 06:21:19;;;;;;;51.63;21.42;;;1.30;99.90;;;;;;5094700;28;20028;-62
2022/12/04 06:23:45;;;;;;;55.15;20.67;;;1.30;99.90;;;;;;5095223;28;20016;-62
2022/12/04 06:26:11;;;;;;;59.10;23.80;;;1.20;99.90;;;;;;5095517;28;20069;-62
2022/12/04 06:28:36;;;;;;;53.63;20.65;;;1.30;99.90;;;;;;5076488;28;20027;-62
2022/12/04 06:31:07;;;;;;;50.60;19.83;;;1.20;99.90;;;;;;5095569;28;20016;-62
2022/12/04 06:33:33;;;;;;;53.05;20.67;;;1.30;99.90;;;;;;5094994;28;20032;-62
2022/12/04 06:36:05;;;;;;;46.47;19.40;;;1.30;99.90;;;;;;5094463;28;20049;-62
2022/12/04 06:38:31;;;;;;;59.70;23.88;;;1.30;99.90;;;;;;5094872;28;20034;-62
2022/12/04 06:40:56;;;;;;;55.20;22.58;;;1.30;99.90;;;;;;5095377;28;20024;-62
2022/12/04 06:43:23;;;;;;;50.88;20.35;;;1.40;99.90;;;;;;5093971;28;20020;-62
2022/12/04 06:45:48;;;;;;;54.03;20.27;;;1.40;99.90;;;;;;5095001;28;20545;-62
2022/12/04 06:48:14;;;;;;;54.95;21.08;;;1.40;99.90;;;;;;5099032;28;20020;-63
2022/12/04 06:50:40;;;;;;;47.75;19.90;;;1.30;99.90;;;;;;5112740;28;20085;-62
2022/12/04 06:53:06;;;;;;;57.35;22.15;;;1.40;99.90;;;;;;5110779;28;20043;-62
2022/12/04 06:55:31;;;;;;;52.60;21.48;;;1.40;99.90;;;;;;5112562;28;20044;-62
2022/12/04 06:57:57;;;;;;;49.53;22.58;;;1.30;99.90;;;;;;5105615;28;20026;-62
2022/12/04 07:00:22;;;;;;;49.58;20.13;;;1.40;99.90;;;;;;5112773;28;20023;-62
2022/12/04 07:02:48;;;;;;;56.92;21.92;;;1.40;99.90;;;;;;5113697;28;20066;-62
2022/12/04 07:05:13;;;;;;;51.83;20.55;;;1.30;99.90;;;;;;5111244;28;20536;-62
2022/12/04 07:07:39;;;;;;;52.25;20.50;;;1.30;99.90;;;;;;5106763;28;20103;-62
2022/12/04 07:10:05;;;;;;;53.33;19.63;;;1.30;99.90;;;;;;5094654;28;20028;-62
2022/12/04 07:12:31;;;;;;;54.15;20.67;;;1.40;99.90;;;;;;5092010;28;20036;-62
2022/12/04 07:14:56;;;;;;;49.40;19.83;;;1.30;99.90;;;;;;5094744;28;20090;-62
2022/12/04 07:17:22;;;;;;;56.33;21.80;;;1.40;99.90;;;;;;5096749;28;20028;-62
2022/12/04 07:19:47;;;;;;;55.05;22.65;;;1.40;99.90;;;;;;5079015;28;20107;-62
2022/12/04 07:22:13;;;;;;;49.88;20.33;;;1.40;99.90;;;;;;5108886;28;20020;-62
2022/12/04 07:24:39;;;;;;;55.22;19.38;;;1.40;99.90;;;;;;5088029;28;20109;-62
2022/12/04 07:27:04;;;;;;;53.45;19.83;;;1.40;99.90;;;;;;5095447;28;20030;-62
2022/12/04 07:29:30;;;;;;;51.22;21.60;;;1.40;99.90;;;;;;5110238;28;20535;-62
2022/12/04 07:31:56;;;;;;;53.38;21.13;;;1.40;99.90;;;;;;5111565;28;20046;-62
2022/12/04 07:34:21;;;;;;;48.13;19.20;;;1.40;99.90;;;;;;5111951;28;20028;-62
2022/12/04 07:36:47;;;;;;;53.60;21.27;;;1.40;99.90;;;;;;5095187;28;20039;-62
2022/12/04 07:39:12;;;;;;;53.22;21.35;;;1.40;99.90;;;;;;5091701;28;20103;-62
2022/12/04 07:41:38;;;;;;;57.97;20.65;;;1.30;99.90;;;;;;5097704;28;20120;-62
2022/12/04 07:44:04;;;;;;;50.72;21.80;;;1.30;99.90;;;;;;5092386;28;20146;-62
2022/12/04 07:46:30;;;;;;;52.42;20.60;;;1.40;99.90;;;;;;5091796;28;20020;-62
2022/12/04 07:48:57;;;;;;;58.00;21.50;;;1.40;99.90;;;;;;5092582;28;20043;-62
2022/12/04 07:51:27;;;;;;;49.20;21.40;;;1.40;99.90;;;;;;5092389;28;20028;-62
2022/12/04 07:53:54;;;;;;;61.45;22.25;;;1.40;99.90;;;;;;5091817;28;20097;-62
2022/12/04 07:56:20;;;;;;;60.55;22.05;;;1.30;99.90;;;;;;5092499;28;20064;-62
2022/12/04 07:58:46;;;;;;;62.50;23.15;;;1.40;99.90;;;;;;5093282;28;20468;-62
2022/12/04 08:01:15;;;;;;;56.20;21.95;;;1.30;99.90;;;;;;5092787;28;20024;-62
2022/12/04 08:03:42;;;;;;;56.97;20.50;;;1.40;99.90;;;;;;5093321;28;20055;-62
2022/12/04 08:06:08;;;;;;;49.33;20.50;;;1.40;99.90;;;;;;5093782;28;20020;-62
2022/12/04 08:08:34;;;;;;;57.13;21.58;;;1.40;99.90;;;;;;5074227;28;20016;-61
2022/12/04 08:11:05;;;;;;;54.50;19.88;;;1.40;99.90;;;;;;5092399;28;20032;-62
2022/12/04 08:13:32;;;;;;;60.17;23.17;;;1.30;99.90;;;;;;5092393;28;20040;-62
2022/12/04 08:16:01;;;;;;;48.63;19.67;;;1.30;99.90;;;;;;5093287;28;20044;-62
2022/12/04 08:18:26;;;;;;;51.85;20.15;;;1.40;99.90;;;;;;5092904;28;20016;-63
2022/12/04 08:20:52;;;;;;;54.03;20.88;;;1.40;99.90;;;;;;5092983;28;20388;-62
2022/12/04 08:23:18;;;;;;;54.42;22.85;;;1.40;99.90;;;;;;5092683;28;20036;-62
2022/12/04 08:25:43;;;;;;;53.63;20.83;;;1.40;99.90;;;;;;5093151;28;20444;-63
2022/12/04 08:28:09;;;;;;;56.38;22.17;;;1.40;99.90;;;;;;5092406;28;20474;-63
2022/12/04 08:30:34;;;;;;;55.03;21.23;;;1.40;99.90;;;;;;5091822;28;20028;-64
2022/12/04 08:33:00;;;;;;;54.50;20.90;;;1.40;99.90;;;;;;5093998;28;20023;-64
2022/12/04 08:35:26;;;;;;;53.80;20.25;;;1.40;99.90;;;;;;5084980;28;20396;-62
2022/12/04 08:37:52;;;;;;;57.05;20.40;;;1.40;99.90;;;;;;5093100;28;20019;-62
2022/12/04 08:40:17;;;;;;;55.05;21.35;;;1.40;99.90;;;;;;5092765;28;20031;-62
2022/12/04 08:42:43;;;;;;;54.45;22.08;;;1.40;99.90;;;;;;5073964;28;20020;-62
2022/12/04 08:45:09;;;;;;;50.97;19.83;;;1.40;99.90;;;;;;5092729;28;20050;-63
2022/12/04 08:47:35;;;;;;;56.75;20.33;;;1.40;99.90;;;;;;5092647;28;20016;-62
2022/12/04 08:50:00;;;;;;;46.05;19.13;;;1.50;99.90;;;;;;5092419;28;20028;-62
2022/12/04 08:52:26;;;;;;;50.00;20.13;;;1.50;99.90;;;;;;5092384;28;20408;-62
2022/12/04 08:54:52;;;;;;;43.95;17.80;;;1.50;99.90;;;;;;5092932;28;20375;-62
2022/12/04 08:57:17;;;;;;;50.30;19.15;;;1.50;99.90;;;;;;5091590;28;20020;-62
2022/12/04 08:59:43;;;;;;;48.35;19.73;;;1.60;99.90;;;;;;5092937;28;20091;-62
2022/12/04 09:02:10;;;;;;;49.80;19.10;;;1.60;99.90;;;;;;5092473;28;20844;-62
2022/12/04 09:04:35;;;;;;;44.63;17.58;;;1.60;99.90;;;;;;5091643;28;20028;-62
2022/12/04 09:07:01;;;;;;;46.70;17.95;;;1.60;99.90;;;;;;5091808;28;20068;-62
2022/12/04 09:09:26;;;;;;;40.05;17.38;;;1.60;99.90;;;;;;5107180;28;20032;-62
2022/12/04 09:11:52;;;;;;;41.88;17.38;;;1.70;99.90;;;;;;5112149;28;20036;-62
2022/12/04 09:14:24;;;;;;;39.35;17.17;;;1.60;99.90;;;;;;5112406;28;20490;-62
2022/12/04 09:16:50;;;;;;;32.42;13.68;;;1.60;99.90;;;;;;5112620;28;20028;-62
2022/12/04 09:19:16;;;;;;;39.35;15.02;;;1.60;99.90;;;;;;5112542;28;20057;-62
2022/12/04 09:21:42;;;;;;;40.42;14.90;;;1.70;99.90;;;;;;5109395;28;20023;-61
2022/12/04 09:24:07;;;;;;;38.05;15.00;;;1.70;99.90;;;;;;5112299;28;20034;-63
2022/12/04 09:26:33;;;;;;;31.70;14.10;;;1.70;99.90;;;;;;5112510;28;20030;-62
2022/12/04 09:29:00;;;;;;;32.50;13.50;;;1.70;99.90;;;;;;5093481;28;20110;-62
2022/12/04 09:31:26;;;;;;;33.50;13.98;;;1.70;99.90;;;;;;5107075;28;20387;-62
2022/12/04 09:33:52;;;;;;;35.83;13.68;;;1.70;99.90;;;;;;5091744;28;20455;-62
2022/12/04 09:36:18;;;;;;;27.80;12.38;;;1.70;99.90;;;;;;5092060;28;20032;-62
2022/12/04 09:38:46;;;;;;;32.38;14.82;;;1.70;99.90;;;;;;5091921;28;20031;-62
2022/12/04 09:41:23;;;;;;;38.97;15.10;;;1.70;99.90;;;;;;5110289;28;20072;-62
2022/12/04 09:43:53;;;;;;;33.83;13.63;;;1.70;99.90;;;;;;5095798;28;20026;-63
2022/12/04 09:46:34;;;;;;;31.42;13.57;;;1.70;99.90;;;;;;5095033;28;20358;-62
2022/12/04 09:49:05;;;;;;;30.42;12.07;;;1.70;99.90;;;;;;5095788;28;20028;-62
2022/12/04 09:51:33;;;;;;;30.05;13.57;;;1.80;99.90;;;;;;5111325;28;20085;-62
2022/12/04 09:54:09;;;;;;;29.17;12.82;;;1.80;99.90;;;;;;5096825;28;20027;-62
2022/12/04 09:56:35;;;;;;;27.00;11.95;;;1.80;99.90;;;;;;5094889;28;20071;-62
2022/12/04 09:59:23;;;;;;;28.10;12.13;;;1.80;99.90;;;;;;5077878;28;20048;-62
2022/12/04 10:02:01;;;;;;;26.15;11.27;;;1.90;99.90;;;;;;5092714;28;20403;-62
2022/12/04 10:04:26;;;;;;;27.98;10.80;;;1.90;99.90;;;;;;5075244;28;20478;-62
2022/12/04 10:07:06;;;;;;;33.25;11.57;;;1.90;99.90;;;;;;5093727;28;20473;-62
2022/12/04 10:09:58;;;;;;;27.90;11.18;;;1.90;99.90;;;;;;5108298;28;20028;-62
2022/12/04 10:13:03;;;;;;;28.15;11.25;;;1.90;99.90;;;;;;5094685;28;20052;-62
2022/12/04 10:15:35;;;;;;;23.20;11.38;;;1.90;99.90;;;;;;5027127;28;20077;-62
2022/12/04 10:18:22;;;;;;;25.27;12.32;;;1.90;99.90;;;;;;5094628;28;20545;-62
2022/12/04 10:21:08;;;;;;;27.88;12.00;;;1.90;99.90;;;;;;5075071;28;20019;-62
2022/12/04 10:23:39;;;;;;;23.23;11.63;;;1.90;99.90;;;;;;5084111;28;20023;-61
2022/12/04 10:26:14;;;;;;;26.85;11.10;;;1.90;99.90;;;;;;5115814;28;20023;-62
2022/12/04 10:28:46;;;;;;;25.95;10.73;;;1.90;99.90;;;;;;5115045;28;20056;-63
2022/12/04 10:31:14;;;;;;;25.58;10.88;;;2.00;99.90;;;;;;5113780;28;20032;-63
2022/12/04 10:33:56;;;;;;;21.98;10.90;;;2.00;99.90;;;;;;5103668;28;20496;-60
2022/12/04 10:36:31;;;;;;;26.17;11.02;;;2.00;99.90;;;;;;5090518;28;20123;-60
2022/12/04 10:39:13;;;;;;;22.42;10.63;;;2.00;99.90;;;;;;5095106;28;20024;-60
2022/12/04 10:42:08;;;;;;;25.58;10.90;;;2.00;99.90;;;;;;5093884;28;20028;-60
2022/12/04 10:44:34;;;;;;;25.83;11.68;;;2.10;99.90;;;;;;5094534;28;20028;-60
2022/12/04 10:47:02;;;;;;;21.85;10.30;;;2.10;99.90;;;;;;5094707;28;20016;-61
2022/12/04 10:49:30;;;;;;;31.73;12.07;;;2.10;99.90;;;;;;5079495;28;20024;-62
2022/12/04 10:51:56;;;;;;;19.58;9.75;;;2.10;99.90;;;;;;5095010;28;20027;-62
2022/12/04 10:54:25;;;;;;;19.38;10.00;;;2.20;99.90;;;;;;5094313;28;20020;-61
2022/12/04 10:57:02;;;;;;;25.80;11.35;;;2.20;99.90;;;;;;5094080;28;20036;-62
2022/12/04 10:59:28;;;;;;;23.35;11.35;;;2.20;99.90;;;;;;5093500;28;20028;-62
2022/12/04 11:02:09;;;;;;;21.77;10.85;;;2.20;99.90;;;;;;5093423;28;20039;-62
2022/12/04 11:04:35;;;;;;;21.50;9.70;;;2.20;99.90;;;;;;5092607;28;20031;-61
2022/12/04 11:07:19;;;;;;;23.27;10.20;;;2.30;99.90;;;;;;5094579;28;20012;-62
2022/12/04 11:09:58;;;;;;;23.05;11.02;;;2.30;99.90;;;;;;5094640;28;20027;-61
2022/12/04 11:12:24;;;;;;;23.73;10.93;;;2.30;99.90;;;;;;5107851;28;20047;-62
2022/12/04 11:15:06;;;;;;;21.33;10.23;;;2.30;99.90;;;;;;5086846;28;20031;-61
2022/12/04 11:17:32;;;;;;;22.45;9.52;;;2.30;99.90;;;;;;5110417;28;20063;-62
2022/12/04 11:20:14;;;;;;;20.40;9.82;;;2.30;99.90;;;;;;5111386;28;20054;-62
2022/12/04 11:22:58;;;;;;;24.65;10.50;;;2.30;99.90;;;;;;5111557;28;20031;-62
2022/12/04 11:25:27;;;;;;;19.70;10.07;;;2.30;99.90;;;;;;5111991;28;20020;-62
2022/12/04 11:27:59;;;;;;;19.77;9.93;;;2.30;99.90;;;;;;5091924;28;20081;-62
2022/12/04 11:30:34;;;;;;;20.08;10.23;;;2.40;99.90;;;;;;5109288;28;20020;-61
2022/12/04 11:33:01;;;;;;;21.58;10.50;;;2.40;99.90;;;;;;5075681;28;20097;-62
2022/12/04 11:35:28;;;;;;;24.30;10.90;;;2.40;99.90;;;;;;5093536;28;20489;-62
2022/12/04 11:38:13;;;;;;;21.63;10.93;;;2.40;99.90;;;;;;5093065;28;20031;-61
2022/12/04 11:40:44;;;;;;;24.75;10.70;;;2.40;99.90;;;;;;5094625;28;20438;-61
2022/12/04 11:43:09;;;;;;;23.80;10.65;;;2.50;99.90;;;;;;5091134;28;20107;-61
2022/12/04 11:45:35;;;;;;;24.92;10.43;;;2.50;99.90;;;;;;5073301;28;20143;-62
2022/12/04 11:48:11;;;;;;;20.45;9.82;;;2.50;99.90;;;;;;5093434;28;20071;-62
2022/12/04 11:50:55;;;;;;;20.98;9.93;;;2.50;99.90;;;;;;5075117;28;20035;-62
2022/12/04 11:53:46;;;;;;;21.15;10.75;;;2.50;99.90;;;;;;5092600;28;20024;-62
2022/12/04 11:56:37;;;;;;;23.45;11.00;;;2.50;99.90;;;;;;5093354;28;20035;-62
2022/12/04 11:59:24;;;;;;;21.00;10.45;;;2.50;99.90;;;;;;5085739;28;20081;-62
2022/12/04 12:02:01;;;;;;;18.65;9.63;;;2.50;99.90;;;;;;5073091;28;20025;-62
2022/12/04 12:04:45;;;;;;;21.92;10.05;;;2.50;99.90;;;;;;5080337;28;20031;-62
2022/12/04 12:07:33;;;;;;;25.10;10.68;;;2.50;99.90;;;;;;5110113;28;20023;-62
2022/12/04 12:10:15;;;;;;;21.42;9.65;;;2.60;99.90;;;;;;5113701;28;20128;-61
2022/12/04 12:13:19;;;;;;;24.98;10.75;;;2.50;99.90;;;;;;5112806;28;20103;-63
2022/12/04 12:15:54;;;;;;;25.02;11.18;;;2.60;99.90;;;;;;5114004;28;20031;-62
2022/12/04 12:18:46;;;;;;;21.50;9.63;;;2.50;99.90;;;;;;5113634;28;20024;-63
2022/12/04 12:21:25;;;;;;;21.52;9.90;;;2.60;99.90;;;;;;5113133;28;20024;-63
2022/12/04 12:24:22;;;;;;;24.65;10.82;;;2.60;99.90;;;;;;5109654;28;20023;-62
2022/12/04 12:27:17;;;;;;;19.48;10.45;;;2.50;99.90;;;;;;5099623;28;20028;-62
2022/12/04 12:30:10;;;;;;;22.23;10.52;;;2.60;99.90;;;;;;5110454;28;20032;-62
2022/12/04 12:32:57;;;;;;;20.00;10.30;;;2.60;99.90;;;;;;5110623;28;20024;-63
2022/12/04 12:35:40;;;;;;;23.60;9.82;;;2.60;99.90;;;;;;5113150;28;20024;-63
2022/12/04 12:38:18;;;;;;;23.00;10.35;;;2.60;99.90;;;;;;5111591;28;20073;-62
2022/12/04 12:40:50;;;;;;;23.85;10.35;;;2.60;99.90;;;;;;5109683;28;20023;-62
2022/12/04 12:43:23;;;;;;;20.60;9.63;;;2.60;99.90;;;;;;5113230;28;20102;-63
2022/12/04 12:45:54;;;;;;;24.15;10.13;;;2.60;99.90;;;;;;5110584;28;20050;-63
2022/12/04 12:48:42;;;;;;;17.65;9.70;;;2.60;99.90;;;;;;5109197;28;20076;-63
2022/12/04 12:51:33;;;;;;;20.25;10.32;;;2.60;99.90;;;;;;5110870;28;20093;-63
2022/12/04 12:54:25;;;;;;;22.40;10.52;;;2.60;99.90;;;;;;5112376;28;20053;-63
2022/12/04 12:56:53;;;;;;;;;;;2.60;99.90;;;;;;5105055;28;20048;-62
2022/12/04 12:59:24;;;;;;;20.10;9.90;;;2.60;99.90;;;;;;5112735;28;19994;-63
2022/12/04 13:01:56;;;;;;;23.38;11.02;;;2.60;99.90;;;;;;5112372;28;20024;-64
2022/12/04 13:04:37;;;;;;;27.50;12.15;;;2.60;99.90;;;;;;5110311;28;20052;-64
2022/12/04 13:07:09;;;;;;;;;;;2.50;99.90;;;;;;5113450;28;20494;-64
2022/12/04 13:09:38;;;;;;;;;;;2.50;99.90;;;;;;5113511;28;19910;-64
2022/12/04 13:12:10;;;;;;;23.42;10.60;;;2.50;99.90;;;;;;5112864;28;20010;-64
2022/12/04 13:14:36;;;;;;;21.95;10.20;;;2.40;99.90;;;;;;5110709;28;20051;-64
2022/12/04 13:17:13;;;;;;;26.13;11.18;;;2.40;99.90;;;;;;5096653;28;20052;-64